Time;durP1;ratioP1;P1;durP2;ratioP2;P2;SDS_P1;SDS_P2;PMS_P1;PMS_P2;Temp;Humidity;BMP_temperature;BMP_pressure;BME280_temperature;BME280_humidity;BME280_pressure;Samples;Min_cycle;Max_cycle;Signal;HPM_P1;HPM_P2
2022/12/05 00:01:11;;;;;;;0.00;0.00;;;3.40;99.90;;;;;;5052432;28;20187;-67
2022/12/05 00:03:37;;;;;;;0.00;0.00;;;3.40;99.90;;;;;;5041961;28;20186;-67
2022/12/05 00:06:03;;;;;;;0.00;0.00;;;3.40;99.90;;;;;;5046517;28;20185;-66
2022/12/05 00:08:28;;;;;;;0.00;0.00;;;3.40;99.90;;;;;;5053552;28;20189;-66
2022/12/05 00:10:54;;;;;;;0.10;0.10;;;3.40;99.90;;;;;;5052197;28;20715;-66
2022/12/05 00:13:19;;;;;;;0.00;0.00;;;3.40;99.90;;;;;;5051088;28;20244;-67
2022/12/05 00:15:45;;;;;;;0.00;0.00;;;3.40;99.90;;;;;;5052365;28;20260;-67
2022/12/05 00:18:10;;;;;;;0.00;0.00;;;3.40;99.90;;;;;;5052041;28;20534;-67
2022/12/05 00:20:36;;;;;;;0.20;0.20;;;3.40;99.90;;;;;;5052240;28;20261;-67
2022/12/05 00:23:02;;;;;;;0.00;0.00;;;3.40;99.90;;;;;;5052161;28;20253;-67
2022/12/05 00:25:27;;;;;;;0.90;0.47;;;3.40;99.90;;;;;;5052427;28;20188;-67
2022/12/05 00:27:53;;;;;;;0.00;0.00;;;3.40;99.90;;;;;;5052175;28;20169;-67
2022/12/05 00:30:19;;;;;;;0.00;0.00;;;3.40;99.90;;;;;;5052367;28;20185;-67
2022/12/05 00:32:44;;;;;;;1.95;0.47;;;3.50;99.90;;;;;;5052086;28;20168;-67
2022/12/05 00:35:10;;;;;;;0.00;0.00;;;3.50;99.90;;;;;;5051550;28;20240;-67
2022/12/05 00:37:35;;;;;;;0.00;0.00;;;3.50;99.90;;;;;;5052033;28;20213;-67
2022/12/05 00:40:01;;;;;;;0.10;0.10;;;3.50;99.90;;;;;;5051436;28;20209;-67
2022/12/05 00:42:26;;;;;;;0.05;0.05;;;3.50;99.90;;;;;;5051649;28;20228;-67
2022/12/05 00:44:52;;;;;;;0.10;0.10;;;3.50;99.90;;;;;;5051910;28;20177;-67
2022/12/05 00:47:17;;;;;;;0.00;0.00;;;3.50;99.90;;;;;;5051919;28;20637;-67
2022/12/05 00:49:43;;;;;;;0.10;0.10;;;3.50;99.90;;;;;;5051936;28;20204;-67
2022/12/05 00:52:09;;;;;;;0.00;0.00;;;3.50;99.90;;;;;;5051805;28;20178;-67
2022/12/05 00:54:34;;;;;;;0.00;0.00;;;3.50;99.90;;;;;;5051773;28;20224;-67
2022/12/05 00:57:00;;;;;;;0.10;0.10;;;3.50;99.90;;;;;;5038661;28;20192;-67
2022/12/05 00:59:25;;;;;;;0.32;0.32;;;3.50;99.90;;;;;;5041700;28;20196;-67
2022/12/05 01:01:51;;;;;;;0.00;0.00;;;3.50;99.90;;;;;;5051704;28;20235;-67
2022/12/05 01:04:23;;;;;;;0.15;0.10;;;3.50;99.90;;;;;;5034487;28;20190;-67
2022/12/05 01:06:49;;;;;;;0.00;0.00;;;3.50;99.90;;;;;;5031783;28;20186;-66
2022/12/05 01:09:17;;;;;;;0.57;0.40;;;3.60;99.90;;;;;;5031891;28;20194;-67
2022/12/05 01:11:42;;;;;;;0.00;0.00;;;3.60;99.90;;;;;;5031601;28;20584;-67
2022/12/05 01:14:10;;;;;;;0.00;0.00;;;3.60;99.90;;;;;;5031605;28;20218;-67
2022/12/05 01:16:37;;;;;;;0.00;0.00;;;3.60;99.90;;;;;;5044120;28;20260;-67
2022/12/05 01:19:10;;;;;;;0.28;0.28;;;3.50;99.90;;;;;;5051807;28;20181;-67
2022/12/05 01:21:36;;;;;;;0.43;0.20;;;3.50;99.90;;;;;;5051624;28;20232;-67
2022/12/05 01:24:01;;;;;;;0.20;0.20;;;3.50;99.90;;;;;;5050297;28;20177;-67
2022/12/05 01:26:27;;;;;;;0.28;0.28;;;3.50;99.90;;;;;;5051655;28;20232;-67
2022/12/05 01:28:53;;;;;;;0.00;0.00;;;3.50;99.90;;;;;;5051628;28;20201;-67
2022/12/05 01:31:27;;;;;;;0.00;0.00;;;3.50;99.90;;;;;;5051577;28;20189;-67
2022/12/05 01:33:55;;;;;;;0.03;0.03;;;3.50;99.90;;;;;;5051283;28;20243;-67
2022/12/05 01:36:22;;;;;;;0.00;0.00;;;3.60;99.90;;;;;;5055139;28;20551;-67
2022/12/05 01:38:48;;;;;;;0.17;0.17;;;3.60;99.90;;;;;;5054965;28;20566;-67
2022/12/05 01:41:17;;;;;;;0.30;0.30;;;3.60;99.90;;;;;;5055146;28;20672;-67
2022/12/05 01:44:00;;;;;;;0.20;0.20;;;3.60;99.90;;;;;;5053541;28;20649;-67
2022/12/05 01:46:27;;;;;;;0.00;0.00;;;3.50;99.90;;;;;;5053873;28;20529;-67
2022/12/05 01:48:59;;;;;;;0.00;0.00;;;3.50;99.90;;;;;;5054447;28;20718;-67
2022/12/05 01:51:25;;;;;;;0.00;0.00;;;3.50;99.90;;;;;;5053480;28;20663;-67
2022/12/05 01:53:50;;;;;;;0.10;0.10;;;3.50;99.90;;;;;;5054915;28;20201;-67
2022/12/05 01:56:17;;;;;;;0.00;0.00;;;3.50;99.90;;;;;;5054942;28;20193;-67
2022/12/05 01:58:43;;;;;;;0.03;0.03;;;3.50;99.90;;;;;;5054967;28;20181;-67
2022/12/05 02:01:12;;;;;;;0.10;0.10;;;3.50;99.90;;;;;;5054885;28;20170;-67
2022/12/05 02:03:39;;;;;;;0.00;0.00;;;3.50;99.90;;;;;;5044159;28;20210;-67
2022/12/05 02:06:05;;;;;;;0.00;0.00;;;3.60;99.90;;;;;;5051413;28;20189;-67
2022/12/05 02:08:31;;;;;;;0.00;0.00;;;3.60;99.90;;;;;;5054521;28;20582;-67
2022/12/05 02:10:57;;;;;;;0.00;0.00;;;3.60;99.90;;;;;;5053827;28;20252;-67
2022/12/05 02:14:01;;;;;;;0.25;0.25;;;3.60;99.90;;;;;;5054456;28;20560;-67
2022/12/05 02:16:53;;;;;;;0.35;0.35;;;3.50;99.90;;;;;;5054236;28;20185;-67
2022/12/05 02:19:57;;;;;;;0.10;0.10;;;3.50;99.90;;;;;;5054458;28;20185;-67
2022/12/05 02:22:47;;;;;;;0.00;0.00;;;3.50;99.90;;;;;;5053116;28;20178;-67
2022/12/05 02:25:51;;;;;;;0.35;0.22;;;3.50;99.90;;;;;;5046807;28;20178;-67
2022/12/05 02:28:55;;;;;;;0.00;0.00;;;3.50;99.90;;;;;;5053181;28;20184;-67
2022/12/05 02:31:44;;;;;;;0.00;0.00;;;3.50;99.90;;;;;;5054438;28;20173;-66
2022/12/05 02:34:30;;;;;;;0.00;0.00;;;3.50;99.90;;;;;;5054164;28;20691;-67
2022/12/05 02:37:04;;;;;;;0.00;0.00;;;3.40;99.90;;;;;;5039058;28;20251;-66
2022/12/05 02:39:37;;;;;;;0.10;0.10;;;3.40;99.90;;;;;;5034188;28;20177;-67
2022/12/05 02:42:08;;;;;;;0.10;0.10;;;3.40;99.90;;;;;;5050367;28;20633;-67
2022/12/05 02:44:44;;;;;;;0.00;0.00;;;3.40;99.90;;;;;;5053379;28;20446;-66
2022/12/05 02:47:12;;;;;;;0.10;0.10;;;3.40;99.90;;;;;;5052858;28;20500;-66
2022/12/05 02:49:40;;;;;;;0.00;0.00;;;3.40;99.90;;;;;;5053903;28;20173;-67
2022/12/05 02:52:08;;;;;;;0.10;0.10;;;3.50;99.90;;;;;;5053725;28;20173;-67
2022/12/05 02:54:41;;;;;;;0.20;0.20;;;3.50;99.90;;;;;;5053251;28;20209;-67
2022/12/05 02:57:08;;;;;;;0.00;0.00;;;3.50;99.90;;;;;;5053775;28;20235;-67
2022/12/05 02:59:34;;;;;;;0.00;0.00;;;3.50;99.90;;;;;;5053739;28;20705;-67
2022/12/05 03:01:59;;;;;;;0.20;0.20;;;3.50;99.90;;;;;;5053662;28;20185;-67
2022/12/05 03:04:26;;;;;;;0.73;0.73;;;3.50;99.90;;;;;;5052308;28;20177;-66
2022/12/05 03:07:02;;;;;;;0.00;0.00;;;3.50;99.90;;;;;;5053226;28;20228;-66
2022/12/05 03:09:34;;;;;;;0.08;0.08;;;3.50;99.90;;;;;;5053418;28;20388;-67
2022/12/05 03:12:32;;;;;;;0.10;0.10;;;3.40;99.90;;;;;;5049487;28;20271;-66
2022/12/05 03:15:18;;;;;;;0.00;0.00;;;3.40;99.90;;;;;;5051691;28;20344;-67
2022/12/05 03:17:50;;;;;;;0.00;0.00;;;3.40;99.90;;;;;;5053168;28;20187;-66
2022/12/05 03:20:30;;;;;;;0.00;0.00;;;3.40;99.90;;;;;;5053451;28;20185;-67
2022/12/05 03:23:10;;;;;;;0.30;0.30;;;3.40;99.90;;;;;;5052859;28;20178;-66
2022/12/05 03:25:56;;;;;;;0.17;0.17;;;3.40;99.90;;;;;;5053234;28;20216;-66
2022/12/05 03:28:37;;;;;;;0.52;0.52;;;3.40;99.90;;;;;;5053033;28;20220;-66
2022/12/05 03:31:09;;;;;;;0.00;0.00;;;3.40;99.90;;;;;;5050537;28;20644;-66
2022/12/05 03:33:42;;;;;;;0.10;0.10;;;3.40;99.90;;;;;;5052652;28;20208;-67
2022/12/05 03:36:16;;;;;;;0.10;0.10;;;3.40;99.90;;;;;;5052519;28;20231;-67
2022/12/05 03:38:51;;;;;;;0.20;0.20;;;3.50;99.90;;;;;;5052548;28;20182;-67
2022/12/05 03:41:29;;;;;;;0.00;0.00;;;3.40;99.90;;;;;;5053068;28;20208;-66
2022/12/05 03:44:04;;;;;;;0.00;0.00;;;3.40;99.90;;;;;;5052886;28;20205;-66
2022/12/05 03:46:53;;;;;;;0.00;0.00;;;3.40;99.90;;;;;;5052942;28;20267;-67
2022/12/05 03:49:26;;;;;;;0.00;0.00;;;3.40;99.90;;;;;;5042079;28;20211;-66
2022/12/05 03:52:02;;;;;;;0.10;0.10;;;3.40;99.90;;;;;;5052931;28;20169;-67
2022/12/05 03:54:39;;;;;;;0.25;0.25;;;3.40;99.90;;;;;;5052681;28;20730;-67
2022/12/05 03:57:11;;;;;;;0.00;0.00;;;3.50;99.90;;;;;;5047656;28;20208;-66
2022/12/05 03:59:54;;;;;;;0.13;0.13;;;3.50;99.90;;;;;;5052745;28;20771;-66
2022/12/05 04:02:46;;;;;;;0.00;0.00;;;3.60;99.90;;;;;;5052795;28;20185;-67
2022/12/05 04:05:27;;;;;;;0.00;0.00;;;3.60;99.90;;;;;;5032645;28;20174;-67
2022/12/05 04:08:05;;;;;;;0.32;0.32;;;3.60;99.90;;;;;;5032728;28;20351;-67
2022/12/05 04:10:47;;;;;;;0.20;0.20;;;3.60;99.90;;;;;;5032337;28;20218;-67
2022/12/05 04:13:32;;;;;;;0.00;0.00;;;3.60;99.90;;;;;;5032663;28;20616;-67
2022/12/05 04:18:59;;;;;;;0.00;0.00;;;3.70;99.90;;;;;;5032628;28;20193;-67
2022/12/05 04:21:39;;;;;;;0.00;0.00;;;3.70;99.90;;;;;;5032477;28;20184;-67
2022/12/05 04:27:15;;;;;;;0.05;0.05;;;3.60;99.90;;;;;;5045205;28;20544;-67
2022/12/05 04:30:02;;;;;;;0.00;0.00;;;3.70;99.90;;;;;;5051865;28;20188;-66
2022/12/05 04:32:33;;;;;;;0.00;0.00;;;3.70;99.90;;;;;;5040435;28;20196;-66
2022/12/05 04:35:08;;;;;;;0.52;0.47;;;3.70;99.90;;;;;;5051873;28;20567;-66
2022/12/05 04:37:39;;;;;;;0.28;0.28;;;3.70;99.90;;;;;;5051914;28;20216;-66
2022/12/05 04:40:32;;;;;;;0.17;0.17;;;3.70;99.90;;;;;;5051681;28;20181;-68
2022/12/05 04:42:59;;;;;;;0.00;0.00;;;3.70;99.90;;;;;;5035677;28;20542;-68
2022/12/05 04:45:25;;;;;;;0.00;0.00;;;3.70;99.90;;;;;;5050673;28;20205;-66
2022/12/05 04:47:56;;;;;;;0.22;0.22;;;3.70;99.90;;;;;;5050644;28;20310;-67
2022/12/05 04:50:25;;;;;;;0.00;0.00;;;3.70;99.90;;;;;;5051555;28;20627;-63
2022/12/05 04:52:55;;;;;;;0.40;0.40;;;3.80;99.90;;;;;;5050789;28;20173;-63
2022/12/05 04:55:27;;;;;;;0.03;0.03;;;3.80;99.90;;;;;;5050919;28;20228;-64
2022/12/05 04:58:04;;;;;;;0.00;0.00;;;3.80;99.90;;;;;;5044062;28;20188;-63
2022/12/05 05:00:37;;;;;;;0.30;0.30;;;3.90;99.90;;;;;;5050728;28;20227;-67
2022/12/05 05:03:09;;;;;;;0.80;0.75;;;3.90;99.90;;;;;;5050261;28;20558;-66
2022/12/05 05:05:37;;;;;;;0.17;0.17;;;3.90;99.90;;;;;;5045576;28;20691;-69
2022/12/05 05:08:02;;;;;;;0.10;0.10;;;3.90;99.90;;;;;;5051506;28;20259;-68
2022/12/05 05:10:36;;;;;;;0.00;0.00;;;3.90;99.90;;;;;;5062855;28;20271;-64
2022/12/05 05:13:02;;;;;;;0.00;0.00;;;3.80;99.90;;;;;;5072814;28;20181;-67
2022/12/05 05:15:27;;;;;;;0.00;0.00;;;3.80;99.90;;;;;;5055048;28;20224;-64
2022/12/05 05:17:53;;;;;;;0.00;0.00;;;3.80;99.90;;;;;;5054647;28;20181;-66
2022/12/05 05:20:25;;;;;;;0.10;0.10;;;3.80;99.90;;;;;;5054111;28;20227;-67
2022/12/05 05:22:56;;;;;;;0.10;0.10;;;3.90;99.90;;;;;;5054799;28;20585;-66
2022/12/05 05:25:22;;;;;;;0.60;0.60;;;3.90;99.90;;;;;;5055422;28;20177;-66
2022/12/05 05:27:53;;;;;;;0.00;0.00;;;3.90;99.90;;;;;;5055119;28;20743;-66
2022/12/05 05:30:20;;;;;;;0.00;0.00;;;3.90;99.90;;;;;;5055310;28;20272;-66
2022/12/05 05:32:46;;;;;;;0.80;0.55;;;3.90;99.90;;;;;;5055134;28;20582;-67
2022/12/05 05:35:12;;;;;;;0.00;0.00;;;3.90;99.90;;;;;;5055146;28;20629;-66
2022/12/05 05:37:38;;;;;;;0.00;0.00;;;3.90;99.90;;;;;;5055261;28;20166;-66
2022/12/05 05:40:06;;;;;;;0.00;0.00;;;4.00;99.90;;;;;;5055083;28;20178;-66
2022/12/05 05:42:32;;;;;;;0.00;0.00;;;4.00;99.90;;;;;;5054932;28;20174;-66
2022/12/05 05:44:57;;;;;;;0.03;0.03;;;4.00;99.90;;;;;;5054484;28;20178;-67
2022/12/05 05:47:23;;;;;;;0.00;0.00;;;4.00;99.90;;;;;;5054413;28;20169;-66
2022/12/05 05:49:48;;;;;;;0.00;0.00;;;4.00;99.90;;;;;;5055012;28;20599;-66
2022/12/05 05:52:14;;;;;;;0.10;0.10;;;4.00;99.90;;;;;;5054976;28;20185;-66
2022/12/05 05:54:40;;;;;;;0.00;0.00;;;4.00;99.90;;;;;;5054827;28;20224;-66
2022/12/05 05:57:05;;;;;;;0.00;0.00;;;4.00;99.90;;;;;;5041018;28;20194;-66
2022/12/05 05:59:31;;;;;;;0.00;0.00;;;4.00;99.90;;;;;;5034992;28;20174;-66
2022/12/05 06:01:56;;;;;;;0.05;0.05;;;4.00;99.90;;;;;;5034716;28;20227;-66
2022/12/05 06:04:22;;;;;;;0.00;0.00;;;4.10;99.90;;;;;;5034680;28;20193;-66
2022/12/05 06:06:47;;;;;;;0.00;0.00;;;4.10;99.90;;;;;;5034848;28;20194;-66
2022/12/05 06:09:13;;;;;;;0.00;0.00;;;4.10;99.90;;;;;;5034567;28;20534;-66
2022/12/05 06:11:38;;;;;;;0.00;0.00;;;4.10;99.90;;;;;;5034291;28;20240;-66
2022/12/05 06:14:04;;;;;;;0.00;0.00;;;4.10;99.90;;;;;;5034598;28;20202;-66
2022/12/05 06:16:30;;;;;;;0.30;0.30;;;4.10;99.90;;;;;;5034701;28;20196;-66
2022/12/05 06:18:56;;;;;;;0.00;0.00;;;4.10;99.90;;;;;;5034566;28;20266;-67
2022/12/05 06:21:22;;;;;;;0.10;0.10;;;4.10;99.90;;;;;;5034533;28;20201;-66
2022/12/05 06:23:48;;;;;;;0.03;0.03;;;4.10;99.90;;;;;;5034533;28;20619;-66
2022/12/05 06:26:17;;;;;;;0.00;0.00;;;4.20;99.90;;;;;;5034635;28;20189;-66
2022/12/05 06:28:43;;;;;;;0.43;0.43;;;4.20;99.90;;;;;;5034478;28;20593;-67
2022/12/05 06:31:11;;;;;;;0.00;0.00;;;4.20;99.90;;;;;;5034544;28;20188;-67
2022/12/05 06:33:38;;;;;;;0.00;0.00;;;4.20;99.90;;;;;;5034320;28;20210;-67
2022/12/05 06:36:06;;;;;;;0.20;0.20;;;4.20;99.90;;;;;;5034344;28;20186;-67
2022/12/05 06:38:32;;;;;;;0.10;0.10;;;4.20;99.90;;;;;;5034287;28;20641;-67
2022/12/05 06:40:58;;;;;;;0.43;0.20;;;4.20;99.90;;;;;;5034270;28;20178;-67
2022/12/05 06:43:23;;;;;;;0.17;0.17;;;4.20;99.90;;;;;;5034416;28;20178;-67
2022/12/05 06:45:49;;;;;;;0.55;0.55;;;4.20;99.90;;;;;;5034186;28;20178;-67
2022/12/05 06:48:15;;;;;;;0.00;0.00;;;4.20;99.90;;;;;;5034139;28;20174;-66
2022/12/05 06:50:47;;;;;;;0.20;0.20;;;4.20;99.90;;;;;;5034105;28;20221;-67
2022/12/05 06:53:13;;;;;;;0.20;0.20;;;4.20;99.90;;;;;;5034168;28;20208;-67
2022/12/05 06:55:38;;;;;;;0.05;0.05;;;4.30;99.90;;;;;;5035671;28;20288;-66
2022/12/05 06:58:04;;;;;;;0.00;0.00;;;4.20;99.90;;;;;;5053926;28;20566;-66
2022/12/05 07:03:13;;;;;;;0.10;0.10;;;4.20;99.90;;;;;;5046349;28;20691;-66
2022/12/05 07:05:39;;;;;;;0.00;0.00;;;4.20;99.90;;;;;;5033919;28;20178;-66
2022/12/05 07:08:04;;;;;;;0.00;0.00;;;4.20;99.90;;;;;;5033906;28;20181;-66
2022/12/05 07:10:30;;;;;;;0.05;0.05;;;4.20;99.90;;;;;;5033759;28;20236;-66
2022/12/05 07:12:55;;;;;;;0.00;0.00;;;4.20;99.90;;;;;;5033818;28;20178;-66
2022/12/05 07:15:21;;;;;;;0.43;0.30;;;4.20;99.90;;;;;;5033568;28;20210;-67
2022/12/05 07:17:46;;;;;;;0.00;0.00;;;4.20;99.90;;;;;;5033635;28;20243;-67
2022/12/05 07:20:16;;;;;;;0.00;0.00;;;4.20;99.90;;;;;;5033546;28;20185;-66
2022/12/05 07:22:42;;;;;;;0.00;0.00;;;4.20;99.90;;;;;;5033419;28;20186;-66
2022/12/05 07:25:08;;;;;;;0.00;0.00;;;4.20;99.90;;;;;;5033430;28;20217;-66
2022/12/05 07:27:33;;;;;;;0.00;0.00;;;4.20;99.90;;;;;;5033411;28;20178;-66
2022/12/05 07:29:59;;;;;;;0.00;0.00;;;4.20;99.90;;;;;;5033386;28;20629;-66
2022/12/05 07:32:25;;;;;;;0.00;0.00;;;4.20;99.90;;;;;;5032690;28;20186;-66
2022/12/05 07:34:50;;;;;;;0.00;0.00;;;4.30;99.90;;;;;;5032953;28;20260;-67
2022/12/05 07:37:16;;;;;;;0.00;0.00;;;4.30;99.90;;;;;;5033302;28;20181;-66
2022/12/05 07:39:41;;;;;;;0.10;0.10;;;4.30;99.90;;;;;;5033104;28;20212;-67
2022/12/05 07:42:07;;;;;;;0.00;0.00;;;4.30;99.90;;;;;;5033141;28;20167;-67
2022/12/05 07:44:33;;;;;;;0.00;0.00;;;4.30;99.90;;;;;;5033030;28;20178;-66
2022/12/05 07:46:59;;;;;;;0.17;0.17;;;4.30;99.90;;;;;;5032907;28;20178;-66
2022/12/05 07:49:25;;;;;;;0.45;0.45;;;4.30;99.90;;;;;;5033073;28;20261;-67
2022/12/05 07:51:50;;;;;;;0.00;0.00;;;4.30;99.90;;;;;;5032818;28;20687;-66
2022/12/05 07:54:16;;;;;;;0.05;0.05;;;4.30;99.90;;;;;;5032869;28;20321;-66
2022/12/05 07:56:41;;;;;;;0.00;0.00;;;4.40;99.90;;;;;;5043107;28;20191;-67
2022/12/05 07:59:07;;;;;;;0.00;0.00;;;4.40;99.90;;;;;;5052788;28;20177;-67
2022/12/05 08:01:32;;;;;;;0.00;0.00;;;4.40;99.90;;;;;;5052532;28;20181;-66
2022/12/05 08:03:58;;;;;;;0.00;0.00;;;4.40;99.90;;;;;;5052485;28;20189;-67
2022/12/05 08:06:29;;;;;;;0.00;0.00;;;4.40;99.90;;;;;;5052651;28;20637;-66
2022/12/05 08:08:55;;;;;;;0.00;0.00;;;4.40;99.90;;;;;;5052316;28;20178;-67
2022/12/05 08:11:26;;;;;;;0.00;0.00;;;4.40;99.90;;;;;;5051079;28;20232;-66
2022/12/05 08:13:52;;;;;;;0.15;0.10;;;4.40;99.90;;;;;;5052233;28;20332;-66
2022/12/05 08:16:21;;;;;;;0.25;0.25;;;4.50;99.90;;;;;;5052445;28;20566;-66
2022/12/05 08:18:47;;;;;;;0.30;0.30;;;4.50;99.90;;;;;;5052338;28;20170;-67
2022/12/05 08:21:18;;;;;;;0.00;0.00;;;4.50;99.90;;;;;;5052172;28;20204;-66
2022/12/05 08:23:44;;;;;;;0.00;0.00;;;4.50;99.90;;;;;;5052152;28;20256;-66
2022/12/05 08:26:15;;;;;;;0.00;0.00;;;4.50;99.90;;;;;;5052300;28;20169;-66
2022/12/05 08:28:42;;;;;;;0.00;0.00;;;4.50;99.90;;;;;;5052148;28;20181;-67
2022/12/05 08:31:11;;;;;;;0.00;0.00;;;4.50;99.90;;;;;;5052183;28;20180;-66
2022/12/05 08:33:37;;;;;;;0.00;0.00;;;4.50;99.90;;;;;;5051992;28;20173;-66
2022/12/05 08:36:05;;;;;;;0.00;0.00;;;4.60;99.90;;;;;;5052201;28;20238;-66
2022/12/05 08:38:32;;;;;;;0.43;0.43;;;4.60;99.90;;;;;;5051860;28;20181;-66
2022/12/05 08:41:02;;;;;;;0.17;0.17;;;4.60;99.90;;;;;;5052008;28;20178;-66
2022/12/05 08:43:29;;;;;;;0.08;0.08;;;4.70;99.90;;;;;;5051656;28;20181;-66
2022/12/05 08:45:55;;;;;;;0.00;0.00;;;4.70;99.90;;;;;;5051386;28;20181;-66
2022/12/05 08:48:22;;;;;;;0.10;0.10;;;4.70;99.90;;;;;;5052028;28;20177;-66
2022/12/05 08:50:48;;;;;;;0.00;0.00;;;4.70;99.90;;;;;;5051876;28;20235;-66
2022/12/05 08:53:14;;;;;;;0.00;0.00;;;4.70;99.90;;;;;;5051942;28;20173;-66
2022/12/05 08:55:40;;;;;;;0.00;0.00;;;4.70;99.90;;;;;;5050244;28;20296;-66
2022/12/05 08:58:05;;;;;;;0.10;0.10;;;4.70;99.90;;;;;;5032057;28;20257;-66
2022/12/05 09:00:31;;;;;;;0.03;0.03;;;4.80;99.90;;;;;;5031902;28;20248;-66
2022/12/05 09:02:57;;;;;;;0.00;0.00;;;4.80;99.90;;;;;;5036689;28;20183;-66
2022/12/05 09:05:23;;;;;;;0.00;0.00;;;4.90;99.90;;;;;;5051818;28;20177;-66
2022/12/05 09:07:49;;;;;;;0.00;0.00;;;4.90;99.90;;;;;;5051688;28;20217;-66
2022/12/05 09:10:15;;;;;;;0.00;0.00;;;4.90;99.90;;;;;;5051368;28;20259;-66
2022/12/05 09:12:40;;;;;;;0.00;0.00;;;4.90;99.90;;;;;;5051737;28;20231;-66
2022/12/05 09:15:07;;;;;;;0.20;0.20;;;4.90;99.90;;;;;;5051475;28;20219;-66
2022/12/05 09:17:33;;;;;;;0.00;0.00;;;5.00;99.90;;;;;;5051555;28;20726;-66
2022/12/05 09:19:59;;;;;;;0.00;0.00;;;5.00;99.90;;;;;;5051607;28;20181;-66
2022/12/05 09:22:25;;;;;;;0.40;0.40;;;5.00;99.90;;;;;;5051823;28;20169;-66
2022/12/05 09:24:50;;;;;;;0.00;0.00;;;5.00;99.90;;;;;;5051508;28;20177;-66
2022/12/05 09:27:16;;;;;;;0.65;0.65;;;5.00;99.90;;;;;;5051675;28;20536;-66
2022/12/05 09:29:42;;;;;;;0.10;0.10;;;5.00;99.90;;;;;;5051526;28;20391;-66
2022/12/05 09:32:08;;;;;;;0.00;0.00;;;5.00;99.90;;;;;;5051563;28;20177;-66
2022/12/05 09:34:33;;;;;;;0.00;0.00;;;5.00;99.90;;;;;;5051432;28;20216;-66
2022/12/05 09:37:00;;;;;;;1.15;1.08;;;5.00;99.90;;;;;;5051472;28;20176;-66
2022/12/05 09:39:27;;;;;;;0.00;0.00;;;5.00;99.90;;;;;;5051665;28;20187;-66
2022/12/05 09:42:19;;;;;;;0.55;0.55;;;5.00;99.90;;;;;;5051349;28;20176;-66
2022/12/05 09:45:00;;;;;;;0.00;0.00;;;5.00;99.90;;;;;;5051435;28;20204;-66
2022/12/05 09:47:33;;;;;;;0.57;0.28;;;5.10;99.90;;;;;;5051485;28;20178;-66
2022/12/05 09:50:29;;;;;;;0.00;0.00;;;5.00;99.90;;;;;;5051303;28;20188;-66
2022/12/05 09:53:15;;;;;;;0.00;0.00;;;5.00;99.90;;;;;;5051281;28;20186;-66
2022/12/05 09:55:43;;;;;;;0.10;0.10;;;5.10;99.90;;;;;;5050615;28;20209;-66
2022/12/05 09:58:49;;;;;;;0.00;0.00;;;5.10;99.90;;;;;;5035095;28;20174;-66
2022/12/05 10:01:41;;;;;;;0.00;0.00;;;5.10;99.90;;;;;;5034825;28;20232;-66
2022/12/05 10:04:21;;;;;;;0.00;0.00;;;5.10;99.90;;;;;;5049386;28;20692;-66
2022/12/05 10:07:24;;;;;;;0.60;0.60;;;5.10;99.90;;;;;;5054694;28;20181;-66
2022/12/05 10:10:25;;;;;;;0.35;0.35;;;5.10;99.90;;;;;;5054740;28;20213;-66
2022/12/05 10:12:55;;;;;;;0.00;0.00;;;5.10;99.90;;;;;;5054640;28;20200;-66
2022/12/05 10:15:38;;;;;;;0.35;0.35;;;5.00;99.90;;;;;;5054697;28;20213;-66
2022/12/05 10:18:30;;;;;;;0.05;0.05;;;5.00;99.90;;;;;;5054866;28;20176;-66
2022/12/05 10:20:59;;;;;;;0.00;0.00;;;5.00;99.90;;;;;;5053452;28;20219;-66
2022/12/05 10:23:30;;;;;;;0.00;0.00;;;4.90;99.90;;;;;;5054701;28;20185;-66
2022/12/05 10:25:58;;;;;;;0.00;0.00;;;4.90;99.90;;;;;;5053344;28;20675;-66
2022/12/05 10:28:39;;;;;;;0.13;0.13;;;4.90;99.90;;;;;;5054609;28;20181;-66
2022/12/05 10:31:09;;;;;;;0.05;0.05;;;4.90;99.90;;;;;;5054488;28;20625;-66
2022/12/05 10:33:39;;;;;;;0.10;0.10;;;4.90;99.90;;;;;;5054373;28;20636;-66
2022/12/05 10:36:11;;;;;;;0.00;0.00;;;4.90;99.90;;;;;;5054452;28;20177;-66
2022/12/05 10:38:37;;;;;;;0.00;0.00;;;4.90;99.90;;;;;;5054453;28;20661;-67
2022/12/05 10:41:07;;;;;;;0.00;0.00;;;4.90;99.90;;;;;;5054292;28;20188;-66
2022/12/05 10:43:36;;;;;;;0.00;0.00;;;4.90;99.90;;;;;;5052910;28;20205;-66
2022/12/05 10:46:03;;;;;;;0.00;0.00;;;4.90;99.90;;;;;;5054446;28;20203;-66
2022/12/05 10:48:30;;;;;;;0.10;0.10;;;5.00;99.90;;;;;;5054179;28;20207;-66
2022/12/05 10:50:57;;;;;;;0.13;0.13;;;4.90;99.90;;;;;;5052644;28;20667;-66
2022/12/05 10:53:43;;;;;;;0.30;0.28;;;5.00;99.90;;;;;;5054169;28;20201;-66
2022/12/05 10:56:38;;;;;;;0.08;0.08;;;5.00;99.90;;;;;;5048545;28;20205;-66
2022/12/05 10:59:05;;;;;;;0.00;0.00;;;5.00;99.90;;;;;;5034115;28;20193;-66
2022/12/05 11:01:31;;;;;;;0.00;0.00;;;5.00;99.90;;;;;;5033965;28;20185;-66
2022/12/05 11:04:00;;;;;;;0.00;0.00;;;5.00;99.90;;;;;;5033957;28;20178;-66
2022/12/05 11:06:26;;;;;;;0.45;0.45;;;5.10;99.90;;;;;;5033643;28;20186;-66
2022/12/05 11:08:55;;;;;;;0.13;0.13;;;5.10;99.90;;;;;;5033066;28;20184;-66
2022/12/05 11:11:32;;;;;;;0.00;0.00;;;5.20;99.90;;;;;;5033802;28;20230;-66
2022/12/05 11:14:24;;;;;;;0.00;0.00;;;5.20;99.90;;;;;;5033772;28;20193;-66
2022/12/05 11:16:58;;;;;;;0.00;0.00;;;5.30;99.90;;;;;;5033696;28;20174;-67
2022/12/05 11:19:34;;;;;;;0.00;0.00;;;5.30;99.90;;;;;;5033833;28;20182;-66
2022/12/05 11:22:00;;;;;;;0.20;0.20;;;5.40;99.90;;;;;;5033562;28;20220;-66
2022/12/05 11:24:34;;;;;;;0.20;0.20;;;5.40;99.90;;;;;;5033651;28;20182;-66
2022/12/05 11:27:20;;;;;;;0.00;0.00;;;5.40;99.90;;;;;;5033581;28;20169;-66
2022/12/05 11:30:17;;;;;;;0.10;0.10;;;5.40;99.90;;;;;;5033436;28;20174;-66
2022/12/05 11:32:43;;;;;;;0.00;0.00;;;5.40;99.90;;;;;;5033495;28;20174;-67
2022/12/05 11:35:24;;;;;;;0.00;0.00;;;5.50;99.90;;;;;;5033314;28;20214;-67
2022/12/05 11:37:56;;;;;;;0.25;0.25;;;5.50;99.90;;;;;;5033305;28;20178;-67
2022/12/05 11:40:38;;;;;;;0.00;0.00;;;5.50;99.90;;;;;;5033466;28;20178;-67
2022/12/05 11:43:41;;;;;;;0.05;0.05;;;5.50;99.90;;;;;;5033317;28;20184;-67
2022/12/05 11:46:40;;;;;;;0.05;0.05;;;5.50;99.90;;;;;;5033272;28;20166;-67
2022/12/05 11:49:30;;;;;;;0.05;0.05;;;5.50;99.90;;;;;;5033115;28;20178;-67
2022/12/05 11:52:05;;;;;;;0.10;0.10;;;5.50;99.90;;;;;;5033061;28;20221;-67
2022/12/05 11:55:12;;;;;;;0.10;0.10;;;5.50;99.90;;;;;;5032870;28;20304;-67
2022/12/05 11:57:56;;;;;;;0.52;0.52;;;5.50;99.90;;;;;;5032311;28;20209;-67
2022/12/05 12:00:30;;;;;;;0.00;0.00;;;5.50;99.90;;;;;;5033023;28;20181;-67
2022/12/05 12:03:13;;;;;;;0.55;0.40;;;5.50;99.90;;;;;;5037675;28;20172;-67
2022/12/05 12:06:09;;;;;;;0.00;0.00;;;5.60;99.90;;;;;;5052808;28;20312;-67
2022/12/05 12:09:04;;;;;;;0.10;0.10;;;5.60;99.90;;;;;;5052768;28;20224;-67
2022/12/05 12:11:33;;;;;;;0.00;0.00;;;5.70;99.90;;;;;;5052561;28;20260;-67
2022/12/05 12:14:08;;;;;;;0.00;0.00;;;5.80;99.90;;;;;;5051219;28;20572;-67
2022/12/05 12:16:49;;;;;;;0.00;0.00;;;5.90;99.90;;;;;;5052596;28;20204;-67
2022/12/05 12:19:39;;;;;;;0.00;0.00;;;6.00;99.90;;;;;;5052338;28;20205;-67
2022/12/05 12:22:28;;;;;;;0.00;0.00;;;6.20;99.90;;;;;;5052551;28;20196;-67
2022/12/05 12:25:22;;;;;;;0.25;0.25;;;6.30;99.90;;;;;;5052349;28;20659;-67
2022/12/05 12:28:20;;;;;;;0.15;0.15;;;6.40;99.90;;;;;;5051344;28;20189;-67
2022/12/05 12:30:58;;;;;;;0.00;0.00;;;6.50;99.90;;;;;;5052332;28;20654;-67
2022/12/05 12:33:32;;;;;;;0.15;0.15;;;6.40;99.90;;;;;;5052454;28;20529;-67
2022/12/05 12:36:27;;;;;;;0.00;0.00;;;6.40;99.90;;;;;;5052237;28;20342;-67
2022/12/05 12:39:25;;;;;;;0.00;0.00;;;6.30;99.90;;;;;;5052505;28;20177;-68
2022/12/05 12:42:27;;;;;;;0.00;0.00;;;6.30;99.90;;;;;;5052135;28;20715;-67
2022/12/05 12:44:53;;;;;;;0.00;0.00;;;6.20;99.90;;;;;;5051951;28;20173;-68
2022/12/05 12:47:38;;;;;;;0.00;0.00;;;6.20;99.90;;;;;;5050258;28;20204;-68
2022/12/05 12:50:13;;;;;;;0.47;0.47;;;6.20;99.90;;;;;;5051211;28;20244;-68
2022/12/05 12:52:49;;;;;;;0.08;0.08;;;6.20;99.90;;;;;;5051495;28;20227;-68
2022/12/05 12:55:30;;;;;;;0.65;0.65;;;6.10;99.90;;;;;;5050627;28;20212;-67
2022/12/05 12:58:27;;;;;;;0.20;0.20;;;6.10;99.90;;;;;;5041315;28;20193;-67
2022/12/05 13:01:16;;;;;;;0.20;0.20;;;6.20;99.90;;;;;;5072023;28;20173;-67
2022/12/05 13:03:48;;;;;;;0.20;0.13;;;6.20;99.90;;;;;;5050119;28;20193;-67
2022/12/05 13:06:28;;;;;;;0.08;0.08;;;6.10;99.90;;;;;;5049458;28;20185;-67
2022/12/05 13:09:01;;;;;;;0.00;0.00;;;6.20;99.90;;;;;;5032699;28;20170;-67
2022/12/05 13:11:32;;;;;;;0.00;0.00;;;6.20;99.90;;;;;;5062334;28;20229;-68
2022/12/05 13:14:00;;;;;;;0.10;0.10;;;6.10;99.90;;;;;;5051569;28;20752;-68
2022/12/05 13:16:36;;;;;;;2.08;0.20;;;6.10;99.90;;;;;;5051531;28;20170;-68
2022/12/05 13:19:05;;;;;;;0.15;0.15;;;6.10;99.90;;;;;;5051338;28;20304;-68
2022/12/05 13:21:30;;;;;;;0.10;0.10;;;6.20;99.90;;;;;;5050971;28;20684;-68
2022/12/05 13:24:04;;;;;;;0.00;0.00;;;6.20;99.90;;;;;;5051311;28;20323;-68
2022/12/05 13:26:33;;;;;;;0.00;0.00;;;6.20;99.90;;;;;;5051319;28;20641;-67
2022/12/05 13:29:01;;;;;;;0.00;0.00;;;6.20;99.90;;;;;;5049587;28;20671;-67
2022/12/05 13:31:34;;;;;;;0.20;0.20;;;6.20;99.90;;;;;;5052522;28;20184;-68
2022/12/05 13:34:00;;;;;;;0.20;0.20;;;6.20;99.90;;;;;;5040145;28;20205;-67